createdAt,value
2023-06-30T00:02:04.873Z,19.64
2023-06-30T00:04:34.245Z,19.65
2023-06-30T00:07:02.307Z,19.70
2023-06-30T00:09:30.316Z,19.67
2023-06-30T00:11:58.272Z,19.42
2023-06-30T00:14:26.199Z,19.31
2023-06-30T00:16:58.068Z,19.28
2023-06-30T00:19:27.265Z,19.19
2023-06-30T00:21:55.888Z,19.21
2023-06-30T00:24:24.819Z,19.19
2023-06-30T00:26:52.647Z,19.19
2023-06-30T00:29:20.913Z,19.19
2023-06-30T00:31:48.837Z,19.14
2023-06-30T00:34:16.781Z,19.21
2023-06-30T00:36:47.674Z,19.26
2023-06-30T00:39:15.441Z,19.15
2023-06-30T00:41:43.342Z,18.97
2023-06-30T00:44:11.107Z,18.82
2023-06-30T00:46:39.059Z,18.97
2023-06-30T00:49:07.328Z,19.03
2023-06-30T00:51:35.054Z,18.94
2023-06-30T00:54:02.942Z,18.87
2023-06-30T00:56:30.789Z,18.33
2023-06-30T00:58:59.219Z,18.05
2023-06-30T01:01:49.200Z,18.02
2023-06-30T01:05:01.557Z,18.07
2023-06-30T01:07:39.734Z,18.17
2023-06-30T01:10:29.713Z,18.00
2023-06-30T01:13:00.076Z,17.87
2023-06-30T01:15:28.356Z,17.90
2023-06-30T01:18:01.146Z,17.73
2023-06-30T01:20:35.843Z,17.73
2023-06-30T01:23:18.963Z,17.78
2023-06-30T01:25:49.741Z,17.79
2023-06-30T01:28:18.583Z,17.82
2023-06-30T01:30:46.799Z,17.74
2023-06-30T01:33:15.353Z,17.65
2023-06-30T01:35:43.296Z,17.68
2023-06-30T01:38:11.234Z,17.47
2023-06-30T01:40:39.203Z,17.82
2023-06-30T01:43:07.314Z,17.32
2023-06-30T01:45:36.354Z,17.44
2023-06-30T01:48:04.523Z,17.32
2023-06-30T01:50:34.190Z,17.33
2023-06-30T01:53:02.153Z,17.59
2023-06-30T01:55:30.118Z,17.33
2023-06-30T01:57:58.076Z,17.12
2023-06-30T02:00:26.002Z,17.02
2023-06-30T02:02:54.734Z,17.14
2023-06-30T02:05:22.795Z,17.26
2023-06-30T02:07:51.399Z,17.35
2023-06-30T02:10:19.755Z,17.30
2023-06-30T02:12:47.770Z,17.22
2023-06-30T02:15:15.683Z,17.14
2023-06-30T02:17:43.670Z,17.21
2023-06-30T02:20:14.100Z,17.06
2023-06-30T02:22:41.942Z,16.78
2023-06-30T02:25:09.913Z,16.80
2023-06-30T02:27:37.780Z,16.88
2023-06-30T02:30:07.017Z,16.93
2023-06-30T02:32:39.824Z,16.90
2023-06-30T02:35:11.490Z,17.01
2023-06-30T02:37:39.469Z,16.97
2023-06-30T02:40:08.815Z,17.10
2023-06-30T02:42:36.738Z,17.01
2023-06-30T02:45:06.347Z,17.08
2023-06-30T02:47:34.386Z,17.01
2023-06-30T02:50:02.678Z,17.05
2023-06-30T02:52:33.305Z,16.96
2023-06-30T02:55:01.291Z,16.93
2023-06-30T02:57:29.142Z,17.04
2023-06-30T02:59:57.766Z,17.02
2023-06-30T03:02:26.063Z,16.85
2023-06-30T03:04:57.187Z,16.90
2023-06-30T03:07:26.876Z,16.84
2023-06-30T03:09:54.936Z,16.92
2023-06-30T03:12:23.299Z,17.10
2023-06-30T03:14:51.472Z,17.21
2023-06-30T03:17:19.536Z,17.29
2023-06-30T03:19:48.065Z,17.32
2023-06-30T03:22:16.188Z,17.51
2023-06-30T03:24:44.209Z,17.29
2023-06-30T03:27:12.255Z,17.06
2023-06-30T03:29:40.436Z,17.06
2023-06-30T03:32:08.914Z,17.24
2023-06-30T03:34:36.786Z,17.19
2023-06-30T03:37:05.121Z,17.12
2023-06-30T03:39:32.976Z,16.86
2023-06-30T03:42:01.166Z,16.99
2023-06-30T03:44:29.052Z,16.89
2023-06-30T03:46:59.521Z,16.90
2023-06-30T03:49:28.064Z,17.06
2023-06-30T03:51:55.916Z,16.84
2023-06-30T03:54:23.838Z,17.03
2023-06-30T03:56:52.416Z,17.09
2023-06-30T03:59:20.335Z,16.95
2023-06-30T04:01:48.304Z,16.86
2023-06-30T04:04:16.437Z,17.01
2023-06-30T04:06:45.980Z,17.00
2023-06-30T04:09:14.044Z,16.99
2023-06-30T04:11:41.926Z,17.50
2023-06-30T04:14:10.092Z,17.43
2023-06-30T04:16:37.907Z,17.24
2023-06-30T04:19:05.866Z,17.17
2023-06-30T04:21:33.830Z,17.14
2023-06-30T04:24:01.867Z,17.20
2023-06-30T04:26:29.872Z,17.36
2023-06-30T04:28:57.781Z,17.61
2023-06-30T04:31:28.297Z,17.83
2023-06-30T04:33:56.486Z,17.74
2023-06-30T04:36:24.444Z,17.80
2023-06-30T04:38:52.424Z,17.81
2023-06-30T04:41:20.483Z,17.93
2023-06-30T04:43:48.414Z,17.97
2023-06-30T04:46:17.372Z,18.24
2023-06-30T04:48:45.313Z,18.19
2023-06-30T04:51:14.765Z,18.13
2023-06-30T04:53:43.354Z,17.98
2023-06-30T04:56:11.261Z,17.96
2023-06-30T04:58:40.095Z,18.04
2023-06-30T05:01:08.035Z,18.09
2023-06-30T05:03:36.123Z,18.46
2023-06-30T05:06:04.138Z,18.40
2023-06-30T05:08:31.911Z,18.35
2023-06-30T05:10:59.777Z,18.68
2023-06-30T05:13:28.414Z,18.58
2023-06-30T05:15:56.489Z,18.56
2023-06-30T05:18:24.768Z,18.75
2023-06-30T05:20:52.866Z,18.73
2023-06-30T05:23:21.345Z,19.01
2023-06-30T05:25:49.066Z,18.85
2023-06-30T05:28:17.307Z,18.94
2023-06-30T05:30:45.086Z,19.01
2023-06-30T05:33:13.013Z,19.25
2023-06-30T05:35:40.910Z,19.53
2023-06-30T05:38:08.890Z,19.54
2023-06-30T05:40:36.802Z,19.66
2023-06-30T05:43:04.813Z,19.96
2023-06-30T05:45:32.579Z,20.11
2023-06-30T05:48:00.490Z,20.17
2023-06-30T05:50:31.287Z,20.31
2023-06-30T05:52:59.265Z,20.29
2023-06-30T05:55:27.054Z,20.53
2023-06-30T05:57:54.924Z,20.57
2023-06-30T06:00:25.771Z,20.90
2023-06-30T06:02:53.725Z,20.95
2023-06-30T06:05:22.109Z,21.05
2023-06-30T06:07:50.718Z,21.14
2023-06-30T06:10:18.600Z,21.29
2023-06-30T06:12:46.499Z,21.48
2023-06-30T06:15:14.550Z,21.68
2023-06-30T06:17:42.462Z,21.80
2023-06-30T06:20:11.025Z,21.99
2023-06-30T06:22:38.847Z,21.92
2023-06-30T06:25:08.551Z,22.12
2023-06-30T06:27:37.279Z,22.52
2023-06-30T06:30:06.943Z,22.64
2023-06-30T06:32:34.874Z,22.76
2023-06-30T06:35:02.828Z,22.86
2023-06-30T06:37:30.686Z,23.14
2023-06-30T06:39:58.479Z,23.23
2023-06-30T06:42:26.314Z,23.29
2023-06-30T06:44:54.431Z,23.18
2023-06-30T06:48:17.828Z,23.29
2023-06-30T06:50:46.275Z,23.58
2023-06-30T06:53:25.894Z,23.76
2023-06-30T06:55:56.595Z,23.73
2023-06-30T06:58:29.286Z,24.10
2023-06-30T07:00:57.602Z,24.08
2023-06-30T07:03:25.908Z,24.14
2023-06-30T07:05:53.846Z,24.52
2023-06-30T07:08:22.006Z,24.82
2023-06-30T07:10:51.673Z,24.64
2023-06-30T07:13:22.287Z,24.88
2023-06-30T07:15:51.786Z,24.82
2023-06-30T07:18:21.083Z,24.89
2023-06-30T07:20:50.448Z,24.79
2023-06-30T07:23:18.966Z,25.33
2023-06-30T07:25:47.750Z,25.13
2023-06-30T07:28:16.652Z,25.27
2023-06-30T07:30:44.961Z,25.27
2023-06-30T07:33:13.773Z,25.33
2023-06-30T07:35:42.136Z,25.99
2023-06-30T07:38:09.951Z,26.03
2023-06-30T07:40:54.085Z,26.10
2023-06-30T07:43:24.645Z,26.20
2023-06-30T07:45:52.761Z,26.91
2023-06-30T07:48:20.769Z,26.74
2023-06-30T07:51:03.243Z,26.45
2023-06-30T07:53:36.654Z,27.09
2023-06-30T07:56:06.961Z,26.65
2023-06-30T07:58:34.911Z,26.24
2023-06-30T08:01:02.921Z,26.13
2023-06-30T08:03:31.152Z,26.70
2023-06-30T08:06:00.358Z,27.37
2023-06-30T08:08:28.860Z,27.05
2023-06-30T08:10:57.817Z,27.19
2023-06-30T08:13:26.997Z,27.20
2023-06-30T08:15:55.297Z,27.74
2023-06-30T08:18:31.569Z,27.54
2023-06-30T08:21:01.233Z,27.43
2023-06-30T08:23:29.096Z,27.69
2023-06-30T08:25:57.067Z,27.76
2023-06-30T08:28:24.926Z,27.62
2023-06-30T08:30:53.961Z,27.70
2023-06-30T08:33:39.751Z,28.15
2023-06-30T08:36:08.976Z,28.38
2023-06-30T08:38:36.949Z,28.15
2023-06-30T08:41:05.083Z,28.28
2023-06-30T08:43:34.251Z,28.33
2023-06-30T08:46:03.080Z,28.47
2023-06-30T08:48:32.687Z,28.66
2023-06-30T08:51:01.531Z,29.21
2023-06-30T08:53:31.533Z,28.91
2023-06-30T08:56:01.177Z,28.88
2023-06-30T08:58:29.839Z,28.92
2023-06-30T09:00:58.358Z,28.91
2023-06-30T09:03:28.938Z,29.04
2023-06-30T09:05:59.907Z,29.37
2023-06-30T09:08:54.296Z,29.37
2023-06-30T09:11:25.743Z,29.03
2023-06-30T09:13:55.406Z,29.14
2023-06-30T09:16:23.516Z,29.29
2023-06-30T09:18:51.699Z,29.53
2023-06-30T09:21:21.607Z,29.24
2023-06-30T09:23:52.762Z,29.30
2023-06-30T09:26:20.983Z,29.59
2023-06-30T09:28:49.507Z,29.86
2023-06-30T09:31:19.840Z,29.90
2023-06-30T09:33:49.199Z,29.68
2023-06-30T09:36:20.219Z,29.47
2023-06-30T09:38:48.188Z,29.32
2023-06-30T09:41:23.199Z,29.60
2023-06-30T09:43:59.145Z,29.35
2023-06-30T09:46:29.808Z,29.95
2023-06-30T09:48:59.759Z,29.91
2023-06-30T09:51:27.928Z,29.85
2023-06-30T09:53:56.158Z,29.76
2023-06-30T09:56:28.318Z,29.89
2023-06-30T09:58:59.117Z,29.68
2023-06-30T10:01:27.621Z,29.73
2023-06-30T10:03:56.477Z,30.05
2023-06-30T10:06:26.453Z,30.41
2023-06-30T10:08:58.906Z,30.46
2023-06-30T10:11:30.651Z,30.64
2023-06-30T10:14:03.692Z,31.01
2023-06-30T10:16:33.713Z,31.18
2023-06-30T10:19:04.082Z,31.16
2023-06-30T10:21:32.300Z,31.34
2023-06-30T10:24:14.613Z,31.32
2023-06-30T10:26:43.138Z,31.32
2023-06-30T10:29:11.610Z,31.04
2023-06-30T10:31:43.593Z,31.16
2023-06-30T10:34:12.316Z,30.93
2023-06-30T10:36:42.522Z,31.28
2023-06-30T10:39:13.106Z,31.61
2023-06-30T10:41:51.915Z,31.81
2023-06-30T10:44:21.823Z,31.48
2023-06-30T10:46:49.746Z,31.38
2023-06-30T10:49:31.088Z,31.51
2023-06-30T10:52:03.470Z,31.38
2023-06-30T10:54:43.380Z,31.28
2023-06-30T10:57:27.086Z,31.10
2023-06-30T11:00:15.919Z,31.21
2023-06-30T11:03:00.844Z,31.47
2023-06-30T11:05:34.507Z,31.48
2023-06-30T11:08:11.136Z,32.17
2023-06-30T11:10:48.800Z,31.53
2023-06-30T11:13:16.917Z,31.73
2023-06-30T11:15:45.768Z,31.89
2023-06-30T11:18:25.002Z,32.10
2023-06-30T11:21:00.964Z,32.44
2023-06-30T11:23:40.115Z,32.55
2023-06-30T11:26:18.595Z,32.89
2023-06-30T11:28:52.094Z,32.93
2023-06-30T11:31:20.386Z,33.09
2023-06-30T11:33:48.864Z,33.13
2023-06-30T11:36:19.898Z,33.71
2023-06-30T11:38:52.119Z,33.37
2023-06-30T11:41:21.986Z,33.04
2023-06-30T11:43:55.719Z,32.78
2023-06-30T11:46:26.725Z,32.84
2023-06-30T11:48:54.729Z,33.17
2023-06-30T11:51:22.690Z,33.34
2023-06-30T11:53:51.085Z,33.59
2023-06-30T11:56:22.632Z,33.94
2023-06-30T11:58:54.787Z,33.80
2023-06-30T12:01:23.002Z,33.85
2023-06-30T12:04:08.118Z,33.81
2023-06-30T12:06:37.372Z,33.97
2023-06-30T12:09:05.290Z,34.03
2023-06-30T12:11:33.349Z,33.51
2023-06-30T12:14:08.493Z,33.77
2023-06-30T12:16:50.238Z,33.57
2023-06-30T12:19:25.601Z,33.47
2023-06-30T12:21:58.508Z,33.08
2023-06-30T12:24:33.417Z,33.13
2023-06-30T12:27:06.725Z,33.37
2023-06-30T12:29:36.918Z,33.51
2023-06-30T12:32:18.349Z,33.43
2023-06-30T12:34:47.507Z,33.81
2023-06-30T12:37:20.378Z,33.35
2023-06-30T12:39:48.362Z,33.45
2023-06-30T12:42:19.846Z,33.73
2023-06-30T12:44:48.062Z,33.71
2023-06-30T12:47:16.181Z,33.86
2023-06-30T12:49:44.239Z,33.94
2023-06-30T12:52:12.562Z,34.21
2023-06-30T12:54:40.887Z,34.12
2023-06-30T12:57:09.256Z,34.08
2023-06-30T12:59:38.716Z,34.10
2023-06-30T13:02:07.893Z,33.61
2023-06-30T13:04:36.845Z,33.80
2023-06-30T13:07:05.034Z,33.98
2023-06-30T13:09:33.080Z,34.12
2023-06-30T13:12:01.318Z,34.48
2023-06-30T13:14:29.685Z,34.85
2023-06-30T13:16:57.581Z,34.29
2023-06-30T13:19:26.218Z,34.22
2023-06-30T13:21:54.804Z,34.04
2023-06-30T13:24:22.719Z,33.92
2023-06-30T13:26:50.488Z,33.87
2023-06-30T13:29:18.968Z,33.74
2023-06-30T13:31:46.980Z,33.85
2023-06-30T13:34:14.845Z,34.36
2023-06-30T13:36:43.225Z,34.53
2023-06-30T13:39:11.221Z,34.31
2023-06-30T13:41:39.051Z,34.37
2023-06-30T13:44:06.909Z,34.39
2023-06-30T13:46:34.783Z,34.48
2023-06-30T13:49:02.793Z,34.56
2023-06-30T13:51:30.765Z,34.62
2023-06-30T13:53:58.520Z,34.70
2023-06-30T13:56:26.281Z,34.66
2023-06-30T13:58:54.161Z,34.57
2023-06-30T14:01:22.026Z,34.69
2023-06-30T14:03:51.953Z,34.71
2023-06-30T14:06:20.350Z,34.58
2023-06-30T14:08:49.083Z,34.60
2023-06-30T14:11:19.256Z,35.00
2023-06-30T14:13:47.121Z,34.96
2023-06-30T14:16:15.446Z,35.00
2023-06-30T14:18:43.361Z,34.83
2023-06-30T14:21:11.117Z,34.76
2023-06-30T14:23:39.101Z,35.45
2023-06-30T14:26:06.924Z,35.01
2023-06-30T14:28:35.746Z,34.85
2023-06-30T14:31:03.630Z,34.46
2023-06-30T14:33:31.568Z,34.71
2023-06-30T14:36:00.081Z,34.49
2023-06-30T14:38:27.986Z,34.47
2023-06-30T14:40:56.056Z,34.48
2023-06-30T14:43:25.279Z,34.73
2023-06-30T14:46:13.101Z,34.38
2023-06-30T14:48:41.450Z,34.37
2023-06-30T14:51:10.528Z,34.04
2023-06-30T14:53:38.549Z,34.36
2023-06-30T14:56:07.337Z,34.36
2023-06-30T14:58:35.249Z,34.35
2023-06-30T15:01:03.384Z,34.25
2023-06-30T15:03:31.363Z,34.25
2023-06-30T15:05:59.507Z,34.15
2023-06-30T15:08:27.321Z,33.83
2023-06-30T15:10:55.290Z,34.13
2023-06-30T15:13:23.253Z,34.10
2023-06-30T15:15:50.984Z,33.86
2023-06-30T15:18:18.894Z,33.89
2023-06-30T15:20:46.745Z,33.77
2023-06-30T15:23:14.868Z,33.55
2023-06-30T15:25:42.805Z,33.19
2023-06-30T15:28:11.000Z,33.37
2023-06-30T15:30:38.921Z,33.45
2023-06-30T15:33:10.031Z,33.16
2023-06-30T15:35:39.310Z,33.16
2023-06-30T15:38:07.931Z,33.12
2023-06-30T15:40:36.649Z,32.99
2023-06-30T15:43:05.175Z,32.68
2023-06-30T15:45:35.118Z,32.82
2023-06-30T15:48:03.334Z,32.54
2023-06-30T15:50:33.036Z,32.59
2023-06-30T15:53:01.121Z,32.38
2023-06-30T15:55:29.497Z,32.40
2023-06-30T15:57:58.740Z,32.30
2023-06-30T16:00:26.751Z,32.42
2023-06-30T16:02:56.137Z,32.50
2023-06-30T16:05:24.479Z,31.76
2023-06-30T16:07:54.287Z,31.73
2023-06-30T16:10:22.320Z,31.73
2023-06-30T16:12:50.318Z,31.68
2023-06-30T16:15:18.255Z,31.49
2023-06-30T16:17:48.884Z,31.66
2023-06-30T16:20:16.997Z,31.74
2023-06-30T16:22:46.914Z,31.36
2023-06-30T16:25:16.869Z,31.36
2023-06-30T16:27:44.789Z,31.58
2023-06-30T16:30:44.354Z,31.45
2023-06-30T16:33:12.860Z,31.05
2023-06-30T16:35:41.750Z,30.80
2023-06-30T16:38:11.037Z,30.84
2023-06-30T16:40:39.071Z,30.76
2023-06-30T16:43:06.934Z,30.58
2023-06-30T16:45:36.767Z,31.06
2023-06-30T16:48:05.719Z,30.76
2023-06-30T16:50:33.857Z,30.56
2023-06-30T16:53:01.776Z,30.73
2023-06-30T16:55:29.845Z,30.59
2023-06-30T16:57:57.663Z,30.36
2023-06-30T17:00:25.884Z,30.38
2023-06-30T17:02:53.845Z,30.31
2023-06-30T17:05:23.060Z,30.18
2023-06-30T17:07:53.005Z,30.14
2023-06-30T17:10:20.870Z,30.04
2023-06-30T17:12:52.424Z,29.98
2023-06-30T17:15:20.386Z,29.93
2023-06-30T17:17:50.513Z,29.85
2023-06-30T17:20:18.791Z,30.11
2023-06-30T17:22:46.692Z,29.96
2023-06-30T17:25:14.766Z,30.14
2023-06-30T17:27:43.142Z,29.95
2023-06-30T17:30:12.245Z,29.91
2023-06-30T17:32:40.911Z,29.87
2023-06-30T17:35:10.537Z,29.64
2023-06-30T17:37:39.470Z,29.38
2023-06-30T17:40:08.560Z,29.37
2023-06-30T17:42:36.460Z,29.01
2023-06-30T17:45:08.296Z,28.77
2023-06-30T17:47:37.706Z,28.48
2023-06-30T17:50:06.098Z,28.35
2023-06-30T17:52:34.369Z,28.23
2023-06-30T17:55:02.227Z,28.08
2023-06-30T17:57:29.921Z,28.03
2023-06-30T17:59:57.541Z,27.90
2023-06-30T18:02:25.373Z,27.76
2023-06-30T18:04:54.250Z,27.68
2023-06-30T18:07:22.257Z,27.63
2023-06-30T18:09:49.867Z,27.51
2023-06-30T18:12:17.587Z,27.50
2023-06-30T18:14:45.380Z,27.32
2023-06-30T18:17:14.889Z,27.19
2023-06-30T18:19:42.769Z,27.02
2023-06-30T18:22:10.673Z,26.91
2023-06-30T18:24:39.670Z,26.80
2023-06-30T18:27:07.388Z,26.91
2023-06-30T18:29:35.057Z,26.89
2023-06-30T18:32:03.136Z,26.65
2023-06-30T18:34:31.240Z,26.61
2023-06-30T18:36:58.882Z,26.46
2023-06-30T18:39:26.555Z,26.42
2023-06-30T18:41:56.036Z,26.28
2023-06-30T18:44:25.151Z,26.29
2023-06-30T18:46:53.264Z,26.04
2023-06-30T18:49:23.595Z,25.86
2023-06-30T18:51:53.214Z,25.52
2023-06-30T18:54:20.848Z,25.47
2023-06-30T18:56:48.897Z,25.46
2023-06-30T18:59:16.721Z,25.28
2023-06-30T19:01:44.825Z,25.14
2023-06-30T19:04:12.727Z,25.18
2023-06-30T19:06:42.143Z,25.18
2023-06-30T19:09:10.050Z,25.12
2023-06-30T19:11:37.793Z,25.19
2023-06-30T19:14:06.790Z,25.17
2023-06-30T19:16:34.485Z,25.02
2023-06-30T19:19:02.156Z,24.90
2023-06-30T19:21:34.502Z,24.96
2023-06-30T19:24:02.941Z,24.72
2023-06-30T19:26:30.712Z,24.66
2023-06-30T19:28:58.799Z,24.69
2023-06-30T19:31:27.545Z,24.66
2023-06-30T19:33:55.380Z,24.63
2023-06-30T19:36:24.629Z,24.48
2023-06-30T19:38:52.269Z,24.32
2023-06-30T19:41:20.958Z,24.14
2023-06-30T19:43:49.242Z,24.06
2023-06-30T19:46:16.959Z,24.20
2023-06-30T19:48:46.869Z,24.16
2023-06-30T19:51:16.563Z,24.15
2023-06-30T19:53:46.178Z,24.03
2023-06-30T19:56:34.233Z,23.96
2023-06-30T19:59:03.302Z,23.87
2023-06-30T20:01:33.235Z,23.77
2023-06-30T20:04:02.036Z,23.82
2023-06-30T20:06:30.337Z,23.75
2023-06-30T20:08:58.874Z,23.71
2023-06-30T20:11:26.897Z,23.69
2023-06-30T20:13:54.936Z,23.65
2023-06-30T20:16:23.474Z,23.69
2023-06-30T20:18:52.800Z,23.64
2023-06-30T20:21:20.572Z,23.53
2023-06-30T20:23:48.358Z,23.50
2023-06-30T20:28:55.606Z,23.41
2023-06-30T20:31:24.802Z,23.41
2023-06-30T20:33:53.174Z,23.37
2023-06-30T20:36:22.409Z,23.17
2023-06-30T20:38:50.341Z,23.19
2023-06-30T20:41:18.060Z,23.11
2023-06-30T20:43:46.286Z,23.01
2023-06-30T20:46:13.931Z,23.06
2023-06-30T20:48:41.653Z,23.15
2023-06-30T20:51:09.613Z,23.07
2023-06-30T20:53:38.133Z,23.06
2023-06-30T20:56:09.184Z,22.97
2023-06-30T20:58:38.391Z,23.00
2023-06-30T21:01:06.507Z,23.05
2023-06-30T21:03:35.206Z,22.95
2023-06-30T21:06:03.411Z,23.10
2023-06-30T21:08:34.242Z,23.08
2023-06-30T21:11:02.424Z,23.00
2023-06-30T21:13:32.226Z,22.92
2023-06-30T21:16:00.431Z,22.89
2023-06-30T21:18:28.513Z,22.97
2023-06-30T21:20:56.428Z,22.97
2023-06-30T21:23:24.440Z,22.89
2023-06-30T21:25:53.996Z,22.86
2023-06-30T21:28:21.967Z,22.82
2023-06-30T21:30:50.013Z,22.83
2023-06-30T21:33:19.756Z,22.77
2023-06-30T21:35:48.021Z,22.78
2023-06-30T21:38:15.983Z,22.76
2023-06-30T21:40:44.136Z,22.86
2023-06-30T21:43:12.282Z,22.87
2023-06-30T21:45:40.209Z,22.79
2023-06-30T21:48:10.377Z,22.78
2023-06-30T21:50:41.090Z,22.64
2023-06-30T21:53:09.221Z,22.56
2023-06-30T21:55:37.247Z,22.66
2023-06-30T21:58:14.726Z,22.61
2023-06-30T22:00:51.325Z,22.53
2023-06-30T22:03:19.931Z,22.59
2023-06-30T22:05:48.031Z,22.56
2023-06-30T22:08:16.036Z,22.45
2023-06-30T22:10:44.224Z,22.44
2023-06-30T22:13:12.603Z,22.51
2023-06-30T22:15:41.566Z,22.50
2023-06-30T22:18:09.922Z,22.49
2023-06-30T22:20:37.767Z,22.53
2023-06-30T22:23:05.707Z,22.44
2023-06-30T22:25:33.760Z,22.31
2023-06-30T22:28:01.846Z,22.23
2023-06-30T22:30:29.894Z,22.22
2023-06-30T22:32:58.416Z,22.23
2023-06-30T22:35:26.513Z,22.14
2023-06-30T22:37:54.577Z,22.14
2023-06-30T22:40:22.901Z,22.14
2023-06-30T22:42:50.823Z,22.00
2023-06-30T22:45:18.726Z,21.87
2023-06-30T22:47:46.805Z,22.13
2023-06-30T22:50:14.971Z,21.83
2023-06-30T22:52:43.048Z,21.73
2023-06-30T22:55:11.627Z,21.59
2023-06-30T22:57:39.691Z,21.55
2023-06-30T23:00:09.160Z,21.55
2023-06-30T23:02:37.197Z,21.53
2023-06-30T23:05:06.981Z,21.85
2023-06-30T23:07:35.090Z,21.38
2023-06-30T23:10:03.319Z,21.42
2023-06-30T23:12:31.587Z,21.45
2023-06-30T23:15:02.202Z,21.40
2023-06-30T23:17:30.313Z,21.09
2023-06-30T23:19:58.314Z,21.13
2023-06-30T23:22:27.262Z,21.08
2023-06-30T23:24:55.261Z,20.98
2023-06-30T23:27:28.701Z,20.76
2023-06-30T23:29:58.180Z,20.79
2023-06-30T23:32:26.281Z,20.74
2023-06-30T23:34:54.494Z,20.82
2023-06-30T23:37:22.623Z,20.71
2023-06-30T23:39:51.715Z,20.54
2023-06-30T23:42:20.189Z,21.22
2023-06-30T23:44:48.462Z,21.19
2023-06-30T23:47:18.740Z,20.60
2023-06-30T23:49:48.542Z,20.45
2023-06-30T23:52:17.587Z,20.30
2023-06-30T23:54:45.659Z,20.26
2023-06-30T23:57:13.586Z,20.15
2023-06-30T23:59:41.790Z,20.39
